Time,TemperatureF,DewpointF,PressureIn,WindDirection,WindDirectionDegrees,WindSpeedMPH,WindSpeedGustMPH,Humidity,HourlyPrecipIn,Conditions,Clouds,dailyrainin,SolarRadiationWatts/m^2,SoftwareType,DateUTC
2013-04-05 00:00:00,61.0,57.4,29.92,WNW,298,1.0,-999.0,88,0.00,,,0.00,0,Wunderground v.1.15,2013-04-05 05:00:00,
2013-04-05 00:07:00,60.9,57.3,29.92,North,360,1.0,-999.0,88,0.00,,,0.00,0,Wunderground v.1.15,2013-04-05 05:07:00,
2013-04-05 00:12:00,60.7,57.1,29.92,NW,305,1.0,-999.0,88,0.00,,,0.00,0,Wunderground v.1.15,2013-04-05 05:12:00,
2013-04-05 00:19:00,60.6,57.0,29.92,WNW,295,1.0,-999.0,88,0.00,,,0.00,0,Wunderground v.1.15,2013-04-05 05:19:00,
2013-04-05 00:25:00,60.5,56.9,29.92,West,277,1.0,-999.0,88,0.00,,,0.00,0,Wunderground v.1.15,2013-04-05 05:25:00,
2013-04-05 00:30:00,60.4,56.8,29.93,WNW,296,1.0,-999.0,88,0.00,,,0.00,0,Wunderground v.1.15,2013-04-05 05:30:00,
2013-04-05 00:36:00,60.4,56.5,29.93,NW,310,1.0,-999.0,87,0.00,,,0.00,0,Wunderground v.1.15,2013-04-05 05:36:00,
2013-04-05 00:42:00,60.3,56.4,29.92,NE,46,1.0,-999.0,87,0.00,,,0.00,0,Wunderground v.1.15,2013-04-05 05:42:00,
2013-04-05 00:49:00,60.4,56.5,29.92,West,262,1.0,-999.0,87,0.00,,,0.00,0,Wunderground v.1.15,2013-04-05 05:49:00,
2013-04-05 00:54:00,60.3,56.4,29.92,West,278,0.0,-999.0,87,0.00,,,0.00,0,Wunderground v.1.15,2013-04-05 05:54:00,
2013-04-05 01:00:00,60.2,56.3,29.92,NW,321,1.0,-999.0,87,0.00,,,0.00,0,Wunderground v.1.15,2013-04-05 06:00:00,
2013-04-05 01:07:00,60.1,56.2,29.92,NW,308,1.0,-999.0,87,0.00,,,0.00,0,Wunderground v.1.15,2013-04-05 06:07:00,
2013-04-05 01:12:00,60.1,56.2,29.93,WNW,303,1.0,-999.0,87,0.00,,,0.00,0,Wunderground v.1.15,2013-04-05 06:12:00,
2013-04-05 01:19:00,60.0,56.1,29.93,NW,325,1.0,-999.0,87,0.00,,,0.00,0,Wunderground v.1.15,2013-04-05 06:19:00,
2013-04-05 01:24:00,60.0,56.1,29.92,NW,307,1.0,-999.0,87,0.00,,,0.00,0,Wunderground v.1.15,2013-04-05 06:24:00,
2013-04-05 01:30:00,59.9,56.0,29.93,NW,319,1.0,-999.0,87,0.00,,,0.00,0,Wunderground v.1.15,2013-04-05 06:30:00,
2013-04-05 01:36:00,59.9,56.0,29.92,SW,225,1.0,-999.0,87,0.00,,,0.00,0,Wunderground v.1.15,2013-04-05 06:36:00,
2013-04-05 01:42:00,59.8,55.9,29.92,NNW,343,1.0,-999.0,87,0.00,,,0.00,0,Wunderground v.1.15,2013-04-05 06:42:00,
2013-04-05 01:49:00,59.7,55.8,29.92,ESE,106,1.0,-999.0,87,0.00,,,0.00,0,Wunderground v.1.15,2013-04-05 06:49:00,
2013-04-05 01:54:00,59.5,55.6,29.92,North,355,0.0,-999.0,87,0.00,,,0.00,0,Wunderground v.1.15,2013-04-05 06:54:00,
2013-04-05 02:00:00,59.5,55.6,29.92,SSW,207,1.0,-999.0,87,0.00,,,0.00,0,Wunderground v.1.15,2013-04-05 07:00:00,
2013-04-05 02:06:00,59.3,55.7,29.92,NW,321,1.0,-999.0,88,0.00,,,0.00,0,Wunderground v.1.15,2013-04-05 07:06:00,
2013-04-05 02:12:00,59.1,55.5,29.92,NW,323,2.0,-999.0,88,0.00,,,0.00,0,Wunderground v.1.15,2013-04-05 07:12:00,
2013-04-05 02:20:00,59.0,55.4,29.92,West,277,1.0,-999.0,88,0.00,,,0.00,0,Wunderground v.1.15,2013-04-05 07:20:00,
2013-04-05 02:27:00,58.7,55.2,29.92,WNW,294,2.0,-999.0,88,0.00,,,0.00,0,Wunderground v.1.15,2013-04-05 07:27:00,
2013-04-05 02:33:00,58.7,55.2,29.92,SW,226,1.0,-999.0,88,0.00,,,0.00,0,Wunderground v.1.15,2013-04-05 07:33:00,
2013-04-05 02:38:00,58.6,55.1,29.92,East,90,1.0,-999.0,88,0.00,,,0.00,0,Wunderground v.1.15,2013-04-05 07:38:00,
2013-04-05 02:45:00,58.4,54.9,29.92,WNW,293,2.0,-999.0,88,0.00,,,0.00,0,Wunderground v.1.15,2013-04-05 07:45:00,
2013-04-05 02:51:00,58.3,55.1,29.92,WNW,301,1.0,-999.0,89,0.00,,,0.00,0,Wunderground v.1.15,2013-04-05 07:51:00,
2013-04-05 02:57:00,58.2,54.7,29.92,WNW,297,1.0,-999.0,88,0.00,,,0.00,0,Wunderground v.1.15,2013-04-05 07:57:00,
2013-04-05 03:03:00,58.2,54.7,29.92,NW,309,1.0,-999.0,88,0.00,,,0.00,0,Wunderground v.1.15,2013-04-05 08:03:00,
2013-04-05 03:09:00,58.2,54.7,29.93,South,172,1.0,-999.0,88,0.00,,,0.00,0,Wunderground v.1.15,2013-04-05 08:09:00,
2013-04-05 03:14:00,58.0,54.5,29.92,West,272,1.0,-999.0,88,0.00,,,0.00,0,Wunderground v.1.15,2013-04-05 08:14:00,
2013-04-05 03:20:00,58.0,54.5,29.92,NE,48,1.0,-999.0,88,0.00,,,0.00,0,Wunderground v.1.15,2013-04-05 08:20:00,
2013-04-05 03:26:00,58.0,54.5,29.93,SE,134,1.0,-999.0,88,0.00,,,0.00,0,Wunderground v.1.15,2013-04-05 08:26:00,
2013-04-05 03:32:00,57.8,54.0,29.93,North,355,1.0,-999.0,87,0.00,,,0.00,0,Wunderground v.1.15,2013-04-05 08:32:00,
2013-04-05 03:38:00,57.9,54.1,29.93,East,80,1.0,-999.0,87,0.00,,,0.00,0,Wunderground v.1.15,2013-04-05 08:38:00,
2013-04-05 03:45:00,57.9,54.1,29.93,NW,311,1.0,-999.0,87,0.00,,,0.00,0,Wunderground v.1.15,2013-04-05 08:45:00,
2013-04-05 03:51:00,57.9,54.1,29.93,West,273,1.0,-999.0,87,0.00,,,0.00,0,Wunderground v.1.15,2013-04-05 08:51:00,
2013-04-05 03:56:00,57.7,53.9,29.93,WNW,300,2.0,-999.0,87,0.00,,,0.00,0,Wunderground v.1.15,2013-04-05 08:56:00,
2013-04-05 04:03:00,57.5,54.0,29.94,SSW,208,1.0,-999.0,88,0.00,,,0.00,0,Wunderground v.1.15,2013-04-05 09:03:00,
2013-04-05 04:09:00,57.4,53.9,29.93,SSW,192,1.0,-999.0,88,0.00,,,0.00,0,Wunderground v.1.15,2013-04-05 09:09:00,
2013-04-05 04:15:00,57.2,53.7,29.94,NW,307,1.0,-999.0,88,0.00,,,0.00,0,Wunderground v.1.15,2013-04-05 09:15:00,
2013-04-05 04:20:00,57.1,53.6,29.94,West,280,1.0,-999.0,88,0.00,,,0.00,0,Wunderground v.1.15,2013-04-05 09:20:00,
2013-04-05 04:26:00,57.1,53.6,29.94,WNW,288,1.0,-999.0,88,0.00,,,0.00,0,Wunderground v.1.15,2013-04-05 09:26:00,
2013-04-05 04:32:00,56.9,53.7,29.94,NE,37,1.0,-999.0,89,0.00,,,0.00,0,Wunderground v.1.15,2013-04-05 09:32:00,
2013-04-05 04:39:00,56.8,53.6,29.94,North,5,1.0,-999.0,89,0.00,,,0.00,0,Wunderground v.1.15,2013-04-05 09:39:00,
2013-04-05 04:44:00,56.6,53.4,29.94,SSW,194,1.0,-999.0,89,0.00,,,0.00,0,Wunderground v.1.15,2013-04-05 09:44:00,
2013-04-05 04:50:00,56.5,53.3,29.95,West,269,1.0,-999.0,89,0.00,,,0.00,0,Wunderground v.1.15,2013-04-05 09:50:00,
2013-04-05 04:57:00,56.4,53.2,29.94,WNW,282,2.0,-999.0,89,0.00,,,0.00,0,Wunderground v.1.15,2013-04-05 09:57:00,
2013-04-05 05:03:00,56.3,53.1,29.94,NE,53,1.0,-999.0,89,0.00,,,0.00,0,Wunderground v.1.15,2013-04-05 10:03:00,
2013-04-05 05:09:00,56.3,52.8,29.95,South,181,1.0,-999.0,88,0.00,,,0.00,0,Wunderground v.1.15,2013-04-05 10:09:00,
2013-04-05 05:15:00,56.4,53.2,29.95,WNW,301,1.0,-999.0,89,0.00,,,0.00,0,Wunderground v.1.15,2013-04-05 10:15:00,
2013-04-05 05:20:00,56.4,53.2,29.95,WNW,298,2.0,-999.0,89,0.00,,,0.00,0,Wunderground v.1.15,2013-04-05 10:20:00,
2013-04-05 05:26:00,56.2,53.0,29.96,SE,125,2.0,-999.0,89,0.00,,,0.00,0,Wunderground v.1.15,2013-04-05 10:26:00,
2013-04-05 05:32:00,56.2,53.3,29.96,WNW,301,2.0,-999.0,90,0.00,,,0.00,0,Wunderground v.1.15,2013-04-05 10:32:00,
2013-04-05 05:40:00,56.2,53.3,29.96,WNW,292,1.0,-999.0,90,0.00,,,0.00,0,Wunderground v.1.15,2013-04-05 10:40:00,
2013-04-05 05:46:00,56.2,53.3,29.97,South,179,1.0,-999.0,90,0.00,,,0.00,0,Wunderground v.1.15,2013-04-05 10:46:00,
2013-04-05 05:53:00,56.2,53.3,29.97,WSW,248,2.0,-999.0,90,0.00,,,0.00,0,Wunderground v.1.15,2013-04-05 10:53:00,
2013-04-05 05:59:00,56.2,53.0,29.97,WNW,292,2.0,-999.0,89,0.00,,,0.00,0,Wunderground v.1.15,2013-04-05 10:59:00,
2013-04-05 06:04:00,56.2,53.0,29.97,North,350,1.0,-999.0,89,0.00,,,0.00,0,Wunderground v.1.15,2013-04-05 11:04:00,
2013-04-05 06:10:00,56.1,52.9,29.97,WNW,302,2.0,-999.0,89,0.00,,,0.00,0,Wunderground v.1.15,2013-04-05 11:10:00,
2013-04-05 06:16:00,56.1,52.9,29.97,ENE,59,2.0,-999.0,89,0.00,,,0.00,0,Wunderground v.1.15,2013-04-05 11:16:00,
2013-04-05 06:22:00,56.1,52.9,29.98,NW,321,1.0,-999.0,89,0.00,,,0.00,0,Wunderground v.1.15,2013-04-05 11:22:00,
2013-04-05 06:29:00,56.1,52.9,29.98,NW,311,1.0,-999.0,89,0.00,,,0.00,0,Wunderground v.1.15,2013-04-05 11:29:00,
2013-04-05 06:34:00,56.1,52.9,29.98,ESE,113,1.0,-999.0,89,0.00,,,0.00,0,Wunderground v.1.15,2013-04-05 11:34:00,
2013-04-05 06:40:00,55.7,52.5,29.98,WSW,254,1.0,-999.0,89,0.00,,,0.00,0,Wunderground v.1.15,2013-04-05 11:40:00,
2013-04-05 06:46:00,55.7,52.8,29.98,WNW,289,1.0,-999.0,90,0.00,,,0.00,0,Wunderground v.1.15,2013-04-05 11:46:00,
2013-04-05 06:52:00,55.5,52.6,29.99,WNW,290,2.0,-999.0,90,0.00,,,0.00,5,Wunderground v.1.15,2013-04-05 11:52:00,
2013-04-05 06:59:00,55.5,52.6,29.99,ESE,117,1.0,-999.0,90,0.00,,,0.00,7,Wunderground v.1.15,2013-04-05 11:59:00,
2013-04-05 07:04:00,55.5,52.6,29.99,NW,304,1.0,-999.0,90,0.00,,,0.00,7,Wunderground v.1.15,2013-04-05 12:04:00,
2013-04-05 07:10:00,55.3,52.4,30.00,NNW,335,1.0,-999.0,90,0.00,,,0.00,9,Wunderground v.1.15,2013-04-05 12:10:00,
2013-04-05 07:17:00,55.2,52.3,30.00,NE,39,1.0,-999.0,90,0.00,,,0.00,12,Wunderground v.1.15,2013-04-05 12:17:00,
2013-04-05 07:22:00,55.2,52.3,30.00,SSW,211,1.0,-999.0,90,0.00,,,0.00,14,Wunderground v.1.15,2013-04-05 12:22:00,
2013-04-05 07:28:00,55.1,52.2,30.00,East,94,1.0,-999.0,90,0.00,,,0.00,18,Wunderground v.1.15,2013-04-05 12:28:00,
2013-04-05 07:34:00,55.0,52.1,30.00,NE,47,1.0,-999.0,90,0.00,,,0.00,26,Wunderground v.1.15,2013-04-05 12:34:00,
2013-04-05 07:41:00,55.0,52.1,30.01,ENE,62,1.0,-999.0,90,0.00,,,0.00,28,Wunderground v.1.15,2013-04-05 12:41:00,
2013-04-05 07:47:00,55.0,52.1,30.01,NNW,331,1.0,-999.0,90,0.00,,,0.00,33,Wunderground v.1.15,2013-04-05 12:47:00,
2013-04-05 07:52:00,55.0,52.1,30.01,WNW,296,2.0,-999.0,90,0.00,,,0.00,30,Wunderground v.1.15,2013-04-05 12:52:00,
2013-04-05 07:59:00,55.1,52.5,30.01,West,275,1.0,-999.0,91,0.00,,,0.00,37,Wunderground v.1.15,2013-04-05 12:59:00,
2013-04-05 08:05:00,55.0,52.1,30.01,ENE,64,1.0,-999.0,90,0.00,,,0.00,37,Wunderground v.1.15,2013-04-05 13:05:00,
2013-04-05 08:10:00,55.0,52.1,30.01,NE,49,2.0,-999.0,90,0.00,,,0.00,37,Wunderground v.1.15,2013-04-05 13:10:00,
2013-04-05 08:17:00,55.1,52.5,30.02,NW,321,1.0,-999.0,91,0.00,,,0.00,74,Wunderground v.1.15,2013-04-05 13:17:00,
2013-04-05 08:22:00,55.2,52.3,30.02,WNW,294,1.0,-999.0,90,0.00,,,0.00,76,Wunderground v.1.15,2013-04-05 13:22:00,
2013-04-05 08:29:00,55.2,52.3,30.03,SW,215,2.0,-999.0,90,0.00,,,0.00,77,Wunderground v.1.15,2013-04-05 13:29:00,
2013-04-05 08:35:00,55.3,52.4,30.03,ENE,61,1.0,-999.0,90,0.00,,,0.00,56,Wunderground v.1.15,2013-04-05 13:35:00,
2013-04-05 08:40:00,55.4,52.5,30.03,ENE,60,1.0,-999.0,90,0.00,,,0.00,67,Wunderground v.1.15,2013-04-05 13:40:00,
2013-04-05 08:46:00,55.4,53.1,30.04,NNE,30,1.0,-999.0,92,0.00,,,0.00,98,Wunderground v.1.15,2013-04-05 13:46:00,
2013-04-05 08:52:00,55.6,52.4,30.04,NE,49,1.0,-999.0,89,0.00,,,0.00,109,Wunderground v.1.15,2013-04-05 13:52:00,
2013-04-05 08:59:00,55.8,52.6,30.03,NE,51,1.0,-999.0,89,0.00,,,0.00,137,Wunderground v.1.15,2013-04-05 13:59:00,
2013-04-05 09:04:00,56.1,52.9,30.04,NNW,329,2.0,-999.0,89,0.00,,,0.00,128,Wunderground v.1.15,2013-04-05 14:04:00,
2013-04-05 09:10:00,56.2,52.4,30.04,NNW,346,2.0,-999.0,87,0.00,,,0.00,134,Wunderground v.1.15,2013-04-05 14:10:00,
2013-04-05 09:17:00,56.5,52.7,30.04,NE,41,2.0,-999.0,87,0.00,,,0.00,97,Wunderground v.1.15,2013-04-05 14:17:00,
2013-04-05 09:23:00,56.6,52.8,30.04,NNE,32,2.0,-999.0,87,0.00,,,0.00,90,Wunderground v.1.15,2013-04-05 14:23:00,
2013-04-05 09:29:00,56.6,52.5,30.04,North,360,2.0,-999.0,86,0.00,,,0.00,63,Wunderground v.1.15,2013-04-05 14:29:00,
2013-04-05 09:35:00,56.7,52.6,30.05,ENE,67,2.0,-999.0,86,0.00,,,0.00,54,Wunderground v.1.15,2013-04-05 14:35:00,
2013-04-05 09:41:00,56.8,53.0,30.05,WSW,257,2.0,-999.0,87,0.00,,,0.00,79,Wunderground v.1.15,2013-04-05 14:41:00,
2013-04-05 09:47:00,56.8,52.7,30.05,WSW,253,2.0,-999.0,86,0.00,,,0.00,60,Wunderground v.1.15,2013-04-05 14:47:00,
2013-04-05 09:53:00,56.8,52.7,30.05,NNE,23,2.0,-999.0,86,0.00,,,0.00,63,Wunderground v.1.15,2013-04-05 14:53:00,
2013-04-05 09:59:00,56.7,52.6,30.05,NE,34,2.0,-999.0,86,0.00,,,0.00,149,Wunderground v.1.15,2013-04-05 14:59:00,
2013-04-05 10:04:00,56.8,52.0,30.06,ENE,59,2.0,-999.0,84,0.00,,,0.00,121,Wunderground v.1.15,2013-04-05 15:04:00,
2013-04-05 10:11:00,56.8,52.0,30.06,NE,42,2.0,-999.0,84,0.00,,,0.00,100,Wunderground v.1.15,2013-04-05 15:11:00,
2013-04-05 10:16:00,56.8,52.0,30.06,ENE,70,2.0,-999.0,84,0.00,,,0.00,93,Wunderground v.1.15,2013-04-05 15:16:00,
2013-04-05 10:22:00,56.8,52.0,30.06,NNE,33,1.0,-999.0,84,0.00,,,0.00,111,Wunderground v.1.15,2013-04-05 15:22:00,
2013-04-05 10:29:00,56.8,52.0,30.06,East,79,1.0,-999.0,84,0.00,,,0.00,162,Wunderground v.1.15,2013-04-05 15:29:00,
2013-04-05 10:35:00,56.9,52.1,30.07,NW,315,2.0,-999.0,84,0.00,,,0.00,134,Wunderground v.1.15,2013-04-05 15:35:00,
2013-04-05 10:41:00,56.8,52.0,30.07,NW,305,2.0,-999.0,84,0.00,,,0.00,151,Wunderground v.1.15,2013-04-05 15:41:00,
2013-04-05 10:47:00,56.8,52.0,30.07,NW,313,2.0,-999.0,84,0.00,,,0.00,127,Wunderground v.1.15,2013-04-05 15:47:00,
2013-04-05 10:52:00,56.9,52.1,30.07,NE,40,1.0,-999.0,84,0.00,,,0.00,253,Wunderground v.1.15,2013-04-05 15:52:00,
2013-04-05 10:59:00,57.2,52.1,30.07,NNW,329,1.0,-999.0,83,0.00,,,0.00,227,Wunderground v.1.15,2013-04-05 15:59:00,
2013-04-05 11:04:00,57.5,52.4,30.07,NNE,24,2.0,-999.0,83,0.00,,,0.00,153,Wunderground v.1.15,2013-04-05 16:04:00,
2013-04-05 11:10:00,57.5,52.0,30.07,WNW,297,2.0,-999.0,82,0.00,,,0.00,278,Wunderground v.1.15,2013-04-05 16:10:00,
2013-04-05 11:16:00,57.7,52.2,30.07,East,92,2.0,-999.0,82,0.00,,,0.00,302,Wunderground v.1.15,2013-04-05 16:16:00,
2013-04-05 11:22:00,58.0,52.5,30.07,East,97,2.0,-999.0,82,0.00,,,0.00,394,Wunderground v.1.15,2013-04-05 16:22:00,
2013-04-05 11:28:00,58.4,52.6,30.06,NNW,342,2.0,-999.0,81,0.00,,,0.00,348,Wunderground v.1.15,2013-04-05 16:28:00,
2013-04-05 11:34:00,58.6,52.4,30.07,NNW,331,2.0,-999.0,80,0.00,,,0.00,297,Wunderground v.1.15,2013-04-05 16:34:00,
2013-04-05 11:40:00,58.8,53.0,30.07,SW,229,2.0,-999.0,81,0.00,,,0.00,251,Wunderground v.1.15,2013-04-05 16:40:00,
2013-04-05 11:47:00,58.8,52.6,30.07,East,81,2.0,-999.0,80,0.00,,,0.00,299,Wunderground v.1.15,2013-04-05 16:47:00,
2013-04-05 11:53:00,58.9,52.4,30.07,NW,323,2.0,-999.0,79,0.00,,,0.00,288,Wunderground v.1.15,2013-04-05 16:53:00,
2013-04-05 11:59:00,59.0,52.8,30.06,West,275,2.0,-999.0,80,0.00,,,0.00,244,Wunderground v.1.15,2013-04-05 16:59:00,
2013-04-05 12:05:00,59.1,52.6,30.06,SSW,192,1.0,-999.0,79,0.00,,,0.00,202,Wunderground v.1.15,2013-04-05 17:05:00,
2013-04-05 12:10:00,59.0,52.5,30.06,NW,311,1.0,-999.0,79,0.00,,,0.00,190,Wunderground v.1.15,2013-04-05 17:10:00,
2013-04-05 12:16:00,59.0,52.8,30.06,NW,319,1.0,-999.0,80,0.00,,,0.00,211,Wunderground v.1.15,2013-04-05 17:16:00,
2013-04-05 12:22:00,58.9,52.7,30.06,NW,307,2.0,-999.0,80,0.00,,,0.00,290,Wunderground v.1.15,2013-04-05 17:22:00,
2013-04-05 12:29:00,59.1,53.3,30.06,NW,305,1.0,-999.0,81,0.00,,,0.00,383,Wunderground v.1.15,2013-04-05 17:29:00,
2013-04-05 12:35:00,59.1,52.6,30.06,WNW,293,2.0,-999.0,79,0.00,,,0.00,320,Wunderground v.1.15,2013-04-05 17:35:00,
2013-04-05 12:40:00,59.2,52.7,30.06,NW,306,2.0,-999.0,79,0.00,,,0.00,297,Wunderground v.1.15,2013-04-05 17:40:00,
2013-04-05 12:46:00,59.3,52.8,30.06,NW,310,2.0,-999.0,79,0.00,,,0.00,540,Wunderground v.1.15,2013-04-05 17:46:00,
2013-04-05 12:52:00,59.7,53.5,30.06,NNW,335,2.0,-999.0,80,0.00,,,0.00,475,Wunderground v.1.15,2013-04-05 17:52:00,
2013-04-05 12:59:00,59.9,52.7,30.06,NNE,19,2.0,-999.0,77,0.00,,,0.00,436,Wunderground v.1.15,2013-04-05 17:59:00,
2013-04-05 13:04:00,60.0,52.8,30.06,WSW,247,2.0,-999.0,77,0.00,,,0.00,452,Wunderground v.1.15,2013-04-05 18:04:00,
2013-04-05 13:10:00,60.3,53.1,30.06,NW,319,1.0,-999.0,77,0.00,,,0.00,436,Wunderground v.1.15,2013-04-05 18:10:00,
2013-04-05 13:16:00,60.3,53.1,30.05,West,276,1.0,-999.0,77,0.00,,,0.00,339,Wunderground v.1.15,2013-04-05 18:16:00,
2013-04-05 13:22:00,60.3,53.1,30.05,NNW,330,2.0,-999.0,77,0.00,,,0.00,330,Wunderground v.1.15,2013-04-05 18:22:00,
2013-04-05 13:29:00,60.3,53.4,30.05,NNE,17,2.0,-999.0,78,0.00,,,0.00,663,Wunderground v.1.15,2013-04-05 18:29:00,
2013-04-05 13:34:00,60.9,53.3,30.05,WNW,302,2.0,-999.0,76,0.00,,,0.00,670,Wunderground v.1.15,2013-04-05 18:34:00,
2013-04-05 13:40:00,60.8,52.5,30.05,North,5,3.0,-999.0,74,0.00,,,0.00,454,Wunderground v.1.15,2013-04-05 18:40:00,
2013-04-05 13:46:00,60.9,52.9,30.04,NNW,342,2.0,-999.0,75,0.00,,,0.00,329,Wunderground v.1.15,2013-04-05 18:46:00,
2013-04-05 13:53:00,61.0,53.0,30.04,WNW,296,2.0,-999.0,75,0.00,,,0.00,501,Wunderground v.1.15,2013-04-05 18:53:00,
2013-04-05 13:59:00,61.9,52.8,30.04,East,80,2.0,-999.0,72,0.00,,,0.00,1290,Wunderground v.1.15,2013-04-05 18:59:00,
2013-04-05 14:04:00,62.6,52.3,30.04,WNW,286,3.0,-999.0,69,0.00,,,0.00,995,Wunderground v.1.15,2013-04-05 19:04:00,
2013-04-05 14:10:00,62.8,52.5,30.04,ESE,111,3.0,-999.0,69,0.00,,,0.00,385,Wunderground v.1.15,2013-04-05 19:10:00,
2013-04-05 14:16:00,62.4,52.5,30.04,ENE,62,2.0,-999.0,70,0.00,,,0.00,339,Wunderground v.1.15,2013-04-05 19:16:00,
2013-04-05 14:22:00,61.7,52.2,30.04,NNW,342,2.0,-999.0,71,0.00,,,0.00,248,Wunderground v.1.15,2013-04-05 19:22:00,
2013-04-05 14:28:00,61.0,51.9,30.04,East,101,2.0,-999.0,72,0.00,,,0.00,188,Wunderground v.1.15,2013-04-05 19:28:00,
2013-04-05 14:35:00,60.6,51.9,30.04,North,5,2.0,-999.0,73,0.00,,,0.00,220,Wunderground v.1.15,2013-04-05 19:35:00,
2013-04-05 14:40:00,60.3,52.0,30.04,NNW,327,2.0,-999.0,74,0.00,,,0.00,197,Wunderground v.1.15,2013-04-05 19:40:00,
2013-04-05 14:47:00,60.2,51.9,30.04,East,98,2.0,-999.0,74,0.00,,,0.00,388,Wunderground v.1.15,2013-04-05 19:47:00,
2013-04-05 14:52:00,60.6,52.6,30.04,West,261,2.0,-999.0,75,0.00,,,0.00,218,Wunderground v.1.15,2013-04-05 19:52:00,
2013-04-05 15:00:00,60.6,52.3,30.04,NW,309,2.0,-999.0,74,0.00,,,0.00,206,Wunderground v.1.15,2013-04-05 20:00:00,
2013-04-05 15:06:00,60.6,51.9,30.03,WNW,298,2.0,-999.0,73,0.00,,,0.00,554,Wunderground v.1.15,2013-04-05 20:06:00,
2013-04-05 15:13:00,61.6,52.9,30.03,WNW,296,2.0,-999.0,73,0.00,,,0.00,865,Wunderground v.1.15,2013-04-05 20:13:00,
2013-04-05 15:19:00,61.9,52.4,30.03,NW,320,3.0,-999.0,71,0.00,,,0.00,367,Wunderground v.1.15,2013-04-05 20:19:00,
2013-04-05 15:24:00,62.2,53.1,30.03,East,85,2.0,-999.0,72,0.00,,,0.00,308,Wunderground v.1.15,2013-04-05 20:24:00,
2013-04-05 15:31:00,62.3,52.4,30.03,NNW,340,2.0,-999.0,70,0.00,,,0.00,786,Wunderground v.1.15,2013-04-05 20:31:00,
2013-04-05 15:36:00,63.0,53.1,30.02,West,275,2.0,-999.0,70,0.00,,,0.00,784,Wunderground v.1.15,2013-04-05 20:36:00,
2013-04-05 15:43:00,63.2,52.5,30.02,ENE,71,2.0,-999.0,68,0.00,,,0.00,148,Wunderground v.1.15,2013-04-05 20:43:00,
2013-04-05 15:48:00,63.1,52.4,30.02,NNW,345,1.0,-999.0,68,0.00,,,0.00,148,Wunderground v.1.15,2013-04-05 20:48:00,
2013-04-05 15:54:00,63.5,52.3,30.02,East,80,1.0,-999.0,67,0.00,,,0.00,673,Wunderground v.1.15,2013-04-05 20:54:00,
2013-04-05 16:00:00,64.2,52.6,30.02,NE,39,1.0,-999.0,66,0.00,,,0.00,645,Wunderground v.1.15,2013-04-05 21:00:00,
2013-04-05 16:06:00,64.6,52.6,30.02,WNW,300,1.0,-999.0,65,0.00,,,0.00,626,Wunderground v.1.15,2013-04-05 21:06:00,
2013-04-05 16:13:00,64.3,52.7,30.01,NW,305,2.0,-999.0,66,0.00,,,0.00,606,Wunderground v.1.15,2013-04-05 21:13:00,
2013-04-05 16:19:00,64.1,52.5,30.01,NNW,342,2.0,-999.0,66,0.00,,,0.00,584,Wunderground v.1.15,2013-04-05 21:19:00,
2013-04-05 16:24:00,64.1,52.9,30.02,WNW,296,2.0,-999.0,67,0.00,,,0.00,550,Wunderground v.1.15,2013-04-05 21:24:00,
2013-04-05 16:30:00,64.1,52.9,30.01,NNW,340,2.0,-999.0,67,0.00,,,0.00,139,Wunderground v.1.15,2013-04-05 21:30:00,
2013-04-05 16:36:00,64.0,52.4,30.01,East,89,2.0,-999.0,66,0.00,,,0.00,63,Wunderground v.1.15,2013-04-05 21:36:00,
2013-04-05 16:42:00,64.1,52.9,30.01,NW,305,2.0,-999.0,67,0.00,,,0.00,413,Wunderground v.1.15,2013-04-05 21:42:00,
2013-04-05 16:49:00,64.1,52.5,30.01,North,355,2.0,-999.0,66,0.00,,,0.00,77,Wunderground v.1.15,2013-04-05 21:49:00,
2013-04-05 16:54:00,64.3,53.1,30.01,North,10,1.0,-999.0,67,0.00,,,0.00,84,Wunderground v.1.15,2013-04-05 21:54:00,
2013-04-05 17:01:00,64.4,52.8,30.01,NW,306,1.0,-999.0,66,0.00,,,0.00,54,Wunderground v.1.15,2013-04-05 22:01:00,
2013-04-05 17:07:00,64.6,53.0,30.01,North,351,1.0,-999.0,66,0.00,,,0.00,193,Wunderground v.1.15,2013-04-05 22:07:00,
2013-04-05 17:12:00,64.8,53.2,30.01,WNW,290,1.0,-999.0,66,0.00,,,0.00,214,Wunderground v.1.15,2013-04-05 22:12:00,
2013-04-05 17:19:00,64.9,53.3,30.01,NNW,342,1.0,-999.0,66,0.00,,,0.00,51,Wunderground v.1.15,2013-04-05 22:19:00,
2013-04-05 17:24:00,64.9,52.8,30.01,NE,46,1.0,-999.0,65,0.00,,,0.00,47,Wunderground v.1.15,2013-04-05 22:24:00,
2013-04-05 17:30:00,64.9,53.3,30.01,WNW,293,1.0,-999.0,66,0.00,,,0.00,42,Wunderground v.1.15,2013-04-05 22:30:00,
2013-04-05 17:36:00,65.0,52.5,30.01,WNW,296,1.0,-999.0,64,0.00,,,0.00,40,Wunderground v.1.15,2013-04-05 22:36:00,
2013-04-05 17:43:00,64.9,52.8,30.01,WNW,302,2.0,-999.0,65,0.00,,,0.00,39,Wunderground v.1.15,2013-04-05 22:43:00,
2013-04-05 17:49:00,64.9,52.8,30.01,SW,215,1.0,-999.0,65,0.00,,,0.00,37,Wunderground v.1.15,2013-04-05 22:49:00,
2013-04-05 17:55:00,64.9,52.8,30.01,WNW,297,1.0,-999.0,65,0.00,,,0.00,37,Wunderground v.1.15,2013-04-05 22:55:00,
2013-04-05 18:00:00,64.9,52.8,30.02,NW,304,1.0,-999.0,65,0.00,,,0.00,33,Wunderground v.1.15,2013-04-05 23:00:00,
2013-04-05 18:06:00,64.8,52.3,30.02,ENE,61,1.0,-999.0,64,0.00,,,0.00,35,Wunderground v.1.15,2013-04-05 23:06:00,
2013-04-05 18:12:00,64.7,52.7,30.02,NE,55,1.0,-999.0,65,0.00,,,0.00,28,Wunderground v.1.15,2013-04-05 23:12:00,
2013-04-05 18:19:00,64.7,53.5,30.02,WNW,295,1.0,-999.0,67,0.00,,,0.00,26,Wunderground v.1.15,2013-04-05 23:19:00,
2013-04-05 18:25:00,64.6,52.6,30.02,ENE,60,0.0,-999.0,65,0.00,,,0.00,23,Wunderground v.1.15,2013-04-05 23:25:00,
2013-04-05 18:30:00,64.5,52.9,30.03,ENE,72,1.0,-999.0,66,0.00,,,0.00,21,Wunderground v.1.15,2013-04-05 23:30:00,
2013-04-05 18:37:00,64.4,52.4,30.03,WNW,283,1.0,-999.0,65,0.00,,,0.00,18,Wunderground v.1.15,2013-04-05 23:37:00,
2013-04-05 18:42:00,64.3,52.7,30.03,East,85,1.0,-999.0,66,0.00,,,0.00,16,Wunderground v.1.15,2013-04-05 23:42:00,
2013-04-05 18:49:00,64.2,52.6,30.03,NE,50,0.0,-999.0,66,0.00,,,0.00,12,Wunderground v.1.15,2013-04-05 23:49:00,
2013-04-05 18:55:00,64.1,52.9,30.04,ENE,71,0.0,-999.0,67,0.00,,,0.00,11,Wunderground v.1.15,2013-04-05 23:55:00,
2013-04-05 19:00:00,64.0,52.8,30.03,NE,37,0.0,-999.0,67,0.00,,,0.00,7,Wunderground v.1.15,2013-04-06 00:00:00,
2013-04-05 19:06:00,64.0,53.2,30.04,NE,34,1.0,-999.0,68,0.00,,,0.00,5,Wunderground v.1.15,2013-04-06 00:06:00,
2013-04-05 19:13:00,63.9,53.1,30.04,South,182,0.0,-999.0,68,0.00,,,0.00,0,Wunderground v.1.15,2013-04-06 00:13:00,
2013-04-05 19:19:00,63.8,53.0,30.05,NW,317,0.0,-999.0,68,0.00,,,0.00,0,Wunderground v.1.15,2013-04-06 00:19:00,
2013-04-05 19:25:00,63.7,52.5,30.05,NW,317,1.0,-999.0,67,0.00,,,0.00,0,Wunderground v.1.15,2013-04-06 00:25:00,
2013-04-05 19:31:00,63.6,52.8,30.05,NNE,29,0.0,-999.0,68,0.00,,,0.00,0,Wunderground v.1.15,2013-04-06 00:31:00,
2013-04-05 19:37:00,63.6,53.2,30.05,West,272,0.0,-999.0,69,0.00,,,0.00,0,Wunderground v.1.15,2013-04-06 00:37:00,
2013-04-05 19:42:00,63.5,52.3,30.06,North,355,0.0,-999.0,67,0.00,,,0.00,0,Wunderground v.1.15,2013-04-06 00:42:00,
2013-04-05 19:49:00,63.4,52.7,30.06,South,171,0.0,-999.0,68,0.00,,,0.00,0,Wunderground v.1.15,2013-04-06 00:49:00,
2013-04-05 19:55:00,63.3,52.6,30.06,North,360,0.0,-999.0,68,0.00,,,0.00,0,Wunderground v.1.15,2013-04-06 00:55:00,
2013-04-05 20:01:00,63.2,52.9,30.06,WNW,286,0.0,-999.0,69,0.00,,,0.00,0,Wunderground v.1.15,2013-04-06 01:01:00,
2013-04-05 20:07:00,63.1,52.8,30.07,North,351,0.0,-999.0,69,0.00,,,0.00,0,Wunderground v.1.15,2013-04-06 01:07:00,
2013-04-05 20:13:00,63.1,53.2,30.07,WNW,290,1.0,-999.0,70,0.00,,,0.00,0,Wunderground v.1.15,2013-04-06 01:13:00,
2013-04-05 20:19:00,63.0,53.4,30.07,ENE,60,0.0,-999.0,71,0.00,,,0.00,0,Wunderground v.1.15,2013-04-06 01:19:00,
2013-04-05 20:25:00,62.9,53.4,30.07,ENE,75,0.0,-999.0,71,0.00,,,0.00,0,Wunderground v.1.15,2013-04-06 01:25:00,
2013-04-05 20:30:00,62.8,52.9,30.07,NW,319,1.0,-999.0,70,0.00,,,0.00,0,Wunderground v.1.15,2013-04-06 01:30:00,
2013-04-05 20:36:00,62.8,53.6,30.07,ENE,69,0.0,-999.0,72,0.00,,,0.00,0,Wunderground v.1.15,2013-04-06 01:36:00,
2013-04-05 20:42:00,62.6,53.4,30.07,NE,49,0.0,-999.0,72,0.00,,,0.00,0,Wunderground v.1.15,2013-04-06 01:42:00,
2013-04-05 20:49:00,62.5,53.3,30.08,North,5,0.0,-999.0,72,0.00,,,0.00,0,Wunderground v.1.15,2013-04-06 01:49:00,
2013-04-05 20:54:00,62.4,53.6,30.07,ESE,116,0.0,-999.0,73,0.00,,,0.00,0,Wunderground v.1.15,2013-04-06 01:54:00,
2013-04-05 21:00:00,62.2,53.4,30.08,East,84,0.0,-999.0,73,0.00,,,0.00,0,Wunderground v.1.15,2013-04-06 02:00:00,
2013-04-05 21:07:00,62.1,53.3,30.09,ESE,103,0.0,-999.0,73,0.00,,,0.00,0,Wunderground v.1.15,2013-04-06 02:07:00,
2013-04-05 21:13:00,62.0,53.2,30.09,NE,43,0.0,-999.0,73,0.00,,,0.00,0,Wunderground v.1.15,2013-04-06 02:13:00,
2013-04-05 21:19:00,61.8,53.4,30.09,ESE,121,0.0,-999.0,74,0.00,,,0.00,0,Wunderground v.1.15,2013-04-06 02:19:00,
2013-04-05 21:24:00,61.6,52.9,30.09,East,83,0.0,-999.0,73,0.00,,,0.00,0,Wunderground v.1.15,2013-04-06 02:24:00,
2013-04-05 21:31:00,61.4,52.3,30.09,WNW,302,0.0,-999.0,72,0.00,,,0.00,0,Wunderground v.1.15,2013-04-06 02:31:00,
2013-04-05 21:37:00,61.4,52.7,30.10,West,263,0.0,-999.0,73,0.00,,,0.00,0,Wunderground v.1.15,2013-04-06 02:37:00,
2013-04-05 21:42:00,61.3,52.6,30.10,ESE,118,0.0,-999.0,73,0.00,,,0.00,0,Wunderground v.1.15,2013-04-06 02:42:00,
2013-04-05 21:49:00,61.3,52.6,30.10,East,79,0.0,-999.0,73,0.00,,,0.00,0,Wunderground v.1.15,2013-04-06 02:49:00,
2013-04-05 21:54:00,61.2,52.5,30.09,NE,55,0.0,-999.0,73,0.00,,,0.00,0,Wunderground v.1.15,2013-04-06 02:54:00,
2013-04-05 22:01:00,61.2,52.8,30.09,North,5,0.0,-999.0,74,0.00,,,0.00,0,Wunderground v.1.15,2013-04-06 03:01:00,
2013-04-05 22:06:00,61.2,52.8,30.10,ENE,65,0.0,-999.0,74,0.00,,,0.00,0,Wunderground v.1.15,2013-04-06 03:06:00,
2013-04-05 22:12:00,61.0,53.0,30.10,ENE,69,0.0,-999.0,75,0.00,,,0.00,0,Wunderground v.1.15,2013-04-06 03:12:00,
2013-04-05 22:19:00,60.9,52.9,30.10,West,269,0.0,-999.0,75,0.00,,,0.00,0,Wunderground v.1.15,2013-04-06 03:19:00,
2013-04-05 22:24:00,60.8,52.5,30.10,WNW,302,0.0,-999.0,74,0.00,,,0.00,0,Wunderground v.1.15,2013-04-06 03:24:00,
2013-04-05 22:30:00,60.7,52.4,30.10,NNE,25,0.0,-999.0,74,0.00,,,0.00,0,Wunderground v.1.15,2013-04-06 03:30:00,
2013-04-05 22:36:00,60.6,52.6,30.10,NNE,30,0.0,-999.0,75,0.00,,,0.00,0,Wunderground v.1.15,2013-04-06 03:36:00,
2013-04-05 22:42:00,60.5,52.5,30.10,NE,47,0.0,-999.0,75,0.00,,,0.00,0,Wunderground v.1.15,2013-04-06 03:42:00,
2013-04-05 22:49:00,60.3,52.0,30.10,SE,131,0.0,-999.0,74,0.00,,,0.00,0,Wunderground v.1.15,2013-04-06 03:49:00,
2013-04-05 22:55:00,60.2,51.9,30.09,East,80,0.0,-999.0,74,0.00,,,0.00,0,Wunderground v.1.15,2013-04-06 03:55:00,
2013-04-05 23:00:00,60.2,51.9,30.10,East,80,0.0,-999.0,74,0.00,,,0.00,0,Wunderground v.1.15,2013-04-06 04:00:00,
2013-04-05 23:02:00,60.2,51.9,30.10,ENE,78,0.0,-999.0,74,0.00,,,0.00,0,Wunderground v.1.15,2013-04-06 04:02:00,
2013-04-05 23:04:00,60.2,52.2,30.09,ENE,78,0.0,-999.0,75,0.00,,,0.00,0,Wunderground v.1.15,2013-04-06 04:04:00,
2013-04-05 23:11:00,60.2,52.2,30.09,ENE,78,0.0,-999.0,75,0.00,,,0.00,0,Wunderground v.1.15,2013-04-06 04:11:00,
2013-04-05 23:16:00,60.0,52.1,30.10,NNE,20,0.0,-999.0,75,0.00,,,0.00,0,Wunderground v.1.15,2013-04-06 04:16:00,
2013-04-05 23:22:00,60.0,52.1,30.10,NNE,20,0.0,-999.0,75,0.00,,,0.00,0,Wunderground v.1.15,2013-04-06 04:22:00,
2013-04-05 23:29:00,59.9,52.0,30.10,ESE,123,0.0,-999.0,75,0.00,,,0.00,0,Wunderground v.1.15,2013-04-06 04:29:00,
2013-04-05 23:35:00,59.8,52.2,30.10,ESE,116,0.0,-999.0,76,0.00,,,0.00,0,Wunderground v.1.15,2013-04-06 04:35:00,
2013-04-05 23:40:00,59.8,52.2,30.10,East,96,0.0,-999.0,76,0.00,,,0.00,0,Wunderground v.1.15,2013-04-06 04:40:00,
2013-04-05 23:47:00,59.8,52.2,30.11,SW,229,0.0,-999.0,76,0.00,,,0.00,0,Wunderground v.1.15,2013-04-06 04:47:00,
2013-04-05 23:52:00,59.7,52.5,30.11,West,274,0.0,-999.0,77,0.00,,,0.00,0,Wunderground v.1.15,2013-04-06 04:52:00,
2013-04-05 23:58:00,59.7,51.8,30.11,NE,39,0.0,-999.0,75,0.00,,,0.00,0,Wunderground v.1.15,2013-04-06 04:58:00,